メインページ
METAR-TAF:

METAR-TAF

空港 :

ヘラート, アフガニスタン

緯度: 34-13N, 経度: 062-13E, 海抜: 964m

現時点の気象観測

当レポートは36分前の16:55(UTC)に作成
の風 10kt
気温 7°C
湿度 36%
気圧 1027 hPa
視程10km以上
1,500メートル以下は雲なし、積乱雲なし

METAR: OAHR 171655Z 18010KT CAVOK 07/M07 Q1027 RMK A3033 BLU

時間: 22:01 (17:31 UTC)

予報

当レポートは6時間31分前の11:00(UTC)に作成
予報は17日の 12時(UTC)から 18日の 12時(UTC)まで有効
変向風 3kt
視程10km以上
1,500メートル以下は雲なし、積乱雲なし

TAF: OAHR 171100Z 1712/1812 VRB03KT CAVOK

4,000以上の空港の気象観測と天気予報(METAR報とTAF報)

利用可能な観測所は地図上に黄色い丸と赤い丸で示す。

丸の上にカーソルを重ねると観測所名を参照できる。

次にクリックすると気象観測と天気予報を参照できる。

マップの切り替え:黒色「×」印の緑ボタンをクリックして拡大、「-」印の緑ボタンをクリックして縮小、緑色の三角印をクリックして隣りの地図に切り替え


METAR-TAF: